Time;durP1;ratioP1;P1;durP2;ratioP2;P2;SDS_P1;SDS_P2;PMS_P1;PMS_P2;Temp;Humidity;BMP_temperature;BMP_pressure;BME280_temperature;BME280_humidity;BME280_pressure;Samples;Min_cycle;Max_cycle;Signal;HPM_P1;HPM_P2
2023/03/10 00:02:33;;;;;;;4.17;2.00;;;;;;;11.88;52.07;95940.13;8345259;28;20306;-74
2023/03/10 00:06:37;;;;;;;6.27;2.10;;;;;;;11.55;52.03;95916.00;8344526;28;20244;-74
2023/03/10 00:10:40;;;;;;;4.47;1.80;;;;;;;12.01;51.34;95939.97;8345312;28;20230;-74
2023/03/10 00:14:44;;;;;;;3.23;1.80;;;;;;;12.02;51.17;95924.28;8377675;28;20427;-74
2023/03/10 00:18:47;;;;;;;4.70;1.67;;;;;;;12.05;50.87;95934.41;8383033;28;20232;-74
2023/03/10 00:22:50;;;;;;;4.30;2.07;;;;;;;11.82;51.52;95920.72;8384316;28;20410;-74
2023/03/10 00:26:53;;;;;;;4.67;1.90;;;;;;;11.90;51.14;95931.31;8384273;28;20232;-74
2023/03/10 00:31:02;;;;;;;7.83;2.00;;;;;;;11.70;50.99;95922.53;8384236;28;20252;-73
2023/03/10 00:35:06;;;;;;;5.17;2.00;;;;;;;12.04;50.65;95927.56;8384113;28;20233;-73
2023/03/10 00:39:10;;;;;;;4.97;1.80;;;;;;;12.07;50.18;95931.66;8383772;28;20221;-73
2023/03/10 00:43:13;;;;;;;4.07;1.90;;;;;;;11.99;50.02;95926.31;8383631;28;20235;-73
2023/03/10 00:47:17;;;;;;;4.03;2.00;;;;;;;12.01;50.17;95924.41;8383732;28;20232;-73
2023/03/10 00:51:21;;;;;;;3.37;1.50;;;;;;;11.80;50.43;95911.41;8383988;28;20252;-74
2023/03/10 00:55:23;;;;;;;4.93;1.90;;;;;;;11.97;49.75;95900.47;8383251;28;20229;-73
2023/03/10 00:59:26;;;;;;;4.80;1.60;;;;;;;11.92;49.57;95898.28;8383535;28;20298;-74
2023/03/10 01:03:35;;;;;;;9.80;1.73;;;;;;;11.68;49.54;95869.97;8383133;28;20241;-74
2023/03/10 01:07:38;;;;;;;4.33;1.70;;;;;;;11.65;50.12;95880.59;8382209;28;20237;-74
2023/03/10 01:11:41;;;;;;;6.10;1.77;;;;;;;12.05;49.36;95874.75;8382386;28;20229;-74
2023/03/10 01:15:46;;;;;;;2.93;1.43;;;;;;;11.93;49.31;95871.38;8382684;28;20233;-74
2023/03/10 01:19:50;;;;;;;4.70;1.60;;;;;;;11.86;49.68;95841.72;8382478;28;20469;-73
2023/03/10 01:23:53;;;;;;;2.97;1.73;;;;;;;11.79;49.06;95831.97;8382225;28;20240;-74
2023/03/10 01:27:56;;;;;;;3.80;1.60;;;;;;;11.77;49.33;95813.94;8382140;28;20230;-73
2023/03/10 01:31:59;;;;;;;2.13;1.43;;;;;;;11.91;50.12;95829.19;8382394;28;20237;-74
2023/03/10 01:36:07;;;;;;;2.57;1.23;;;;;;;12.16;49.64;95842.69;8382023;28;20335;-73
2023/03/10 01:40:15;;;;;;;4.37;1.90;;;;;;;12.00;49.38;95819.81;8381793;28;20221;-74
2023/03/10 01:44:19;;;;;;;4.50;1.57;;;;;;;12.17;49.76;95820.19;8382099;28;20327;-74
2023/03/10 01:48:22;;;;;;;4.90;1.70;;;;;;;11.89;50.12;95796.53;8381767;28;20264;-74
2023/03/10 01:52:29;;;;;;;3.90;1.50;;;;;;;11.63;50.13;95778.81;8381359;28;20420;-74
2023/03/10 01:56:33;;;;;;;4.43;1.60;;;;;;;12.05;49.90;95788.28;8381451;28;20242;-74
2023/03/10 02:00:36;;;;;;;6.33;2.20;;;;;;;11.96;50.63;95784.72;8381303;28;20240;-74
2023/03/10 02:04:42;;;;;;;3.20;1.60;;;;;;;11.95;50.47;95771.88;8381186;28;20230;-73
2023/03/10 02:08:50;;;;;;;2.93;1.53;;;;;;;12.20;50.26;95774.00;8380038;28;20244;-74
2023/03/10 02:12:53;;;;;;;3.73;1.60;;;;;;;12.20;50.36;95763.63;8381114;28;20236;-74
2023/03/10 02:16:56;;;;;;;4.03;1.50;;;;;;;11.87;50.44;95741.38;8380715;28;20232;-74
2023/03/10 02:21:04;;;;;;;4.10;1.50;;;;;;;12.10;50.53;95742.03;8380804;28;20229;-74
2023/03/10 02:25:18;;;;;;;2.70;1.43;;;;;;;12.00;51.03;95749.78;8380052;28;20224;-74
2023/03/10 02:29:27;;;;;;;3.07;1.70;;;;;;;12.04;51.01;95750.34;8380451;28;20240;-74
2023/03/10 02:33:31;;;;;;;3.70;1.60;;;;;;;11.96;51.34;95747.59;8380130;28;20237;-74
2023/03/10 02:37:35;;;;;;;5.33;2.10;;;;;;;12.11;51.73;95733.31;8380064;28;20232;-74
2023/03/10 02:41:39;;;;;;;7.20;1.80;;;;;;;12.13;52.06;95737.41;8379289;28;20233;-74
2023/03/10 02:45:45;;;;;;;3.70;1.60;;;;;;;12.10;51.91;95731.66;8379402;28;20233;-74
2023/03/10 02:49:47;;;;;;;3.00;1.40;;;;;;;12.00;52.32;95713.47;8379760;28;20406;-74
2023/03/10 02:53:50;;;;;;;2.97;1.43;;;;;;;12.26;52.45;95723.34;8379611;28;20232;-74
2023/03/10 02:57:53;;;;;;;3.33;1.43;;;;;;;11.99;53.12;95705.81;8379597;28;20232;-74
2023/03/10 03:01:57;;;;;;;5.30;1.87;;;;;;;11.72;54.59;95695.03;8379251;28;20237;-74
2023/03/10 03:06:00;;;;;;;4.03;1.70;;;;;;;11.97;54.16;95698.16;8378819;28;20248;-74
2023/03/10 03:10:03;;;;;;;4.27;1.53;;;;;;;12.07;54.15;95698.19;8378836;28;20240;-74
2023/03/10 03:14:06;;;;;;;3.67;1.67;;;;;;;11.80;54.98;95691.78;8379192;28;20236;-74
2023/03/10 03:18:11;;;;;;;5.10;1.97;;;;;;;11.68;55.26;95696.25;8379061;28;20224;-73
2023/03/10 03:22:14;;;;;;;3.50;1.50;;;;;;;11.79;56.10;95691.94;8378818;28;20244;-74
2023/03/10 03:26:18;;;;;;;2.27;1.53;;;;;;;11.80;55.71;95680.59;8378775;28;20244;-74
2023/03/10 03:30:23;;;;;;;3.30;1.60;;;;;;;11.88;56.12;95691.97;8378657;28;20529;-74
2023/03/10 03:34:27;;;;;;;3.87;1.77;;;;;;;11.80;56.56;95689.19;8378819;28;20233;-74
2023/03/10 03:38:31;;;;;;;5.90;1.80;;;;;;;11.67;57.17;95694.63;8378686;28;20220;-74
2023/03/10 03:42:34;;;;;;;3.17;1.83;;;;;;;11.72;57.80;95692.44;8378504;28;20236;-74
2023/03/10 03:46:37;;;;;;;5.23;1.60;;;;;;;11.80;57.61;95690.97;8378563;28;20294;-74
2023/03/10 03:50:41;;;;;;;4.57;1.80;;;;;;;11.68;58.40;95688.47;8378668;28;20236;-74
2023/03/10 03:54:44;;;;;;;4.30;1.80;;;;;;;11.46;59.17;95699.84;8384695;28;20244;-74
2023/03/10 03:58:47;;;;;;;4.33;1.93;;;;;;;11.64;58.37;95700.06;8385236;28;20237;-74
2023/03/10 04:02:50;;;;;;;6.10;2.30;;;;;;;11.03;58.89;95604.19;8384936;28;20236;-74
2023/03/10 04:06:56;;;;;;;2.93;1.63;;;;;;;11.32;58.99;95656.94;8384569;28;20241;-74
2023/03/10 04:10:59;;;;;;;3.90;2.00;;;;;;;11.30;59.88;95686.53;8384854;28;20451;-74
2023/03/10 04:15:02;;;;;;;5.47;2.03;;;;;;;10.96;59.67;95661.66;8384556;28;20221;-74
2023/03/10 04:19:06;;;;;;;3.43;1.83;;;;;;;11.45;59.68;95689.63;8384774;28;20232;-74
2023/03/10 04:23:10;;;;;;;4.13;1.90;;;;;;;11.36;59.08;95688.59;8384406;28;20227;-74
2023/03/10 04:27:13;;;;;;;4.97;2.33;;;;;;;11.57;58.86;95679.97;8384155;28;20232;-74
2023/03/10 04:31:17;;;;;;;3.27;1.70;;;;;;;11.00;58.68;95597.47;8384260;28;20233;-74
2023/03/10 04:35:20;;;;;;;5.13;1.90;;;;;;;11.31;58.84;95676.03;8384095;28;20240;-74
2023/03/10 04:39:25;;;;;;;4.57;2.03;;;;;;;11.35;58.96;95674.84;8384029;28;20240;-74
2023/03/10 04:43:28;;;;;;;4.63;2.00;;;;;;;11.46;58.30;95668.75;8383772;28;20240;-74
2023/03/10 04:47:31;;;;;;;4.67;2.17;;;;;;;11.51;58.11;95671.75;8383616;28;20241;-74
2023/03/10 04:51:34;;;;;;;4.17;1.60;;;;;;;11.26;59.12;95661.84;8383872;28;20228;-74
2023/03/10 04:55:38;;;;;;;3.93;1.97;;;;;;;11.48;58.48;95664.25;8383430;28;20251;-74
2023/03/10 04:59:41;;;;;;;5.17;2.00;;;;;;;11.35;59.03;95659.28;8382876;28;20236;-73
2023/03/10 05:03:44;;;;;;;5.67;1.97;;;;;;;11.29;58.82;95659.81;8382751;28;20233;-74
2023/03/10 05:07:49;;;;;;;3.53;1.67;;;;;;;11.45;58.88;95655.91;8382652;28;20232;-74
2023/03/10 05:11:53;;;;;;;5.97;1.97;;;;;;;11.23;59.39;95659.50;8382699;28;20229;-74
2023/03/10 05:15:58;;;;;;;3.67;1.80;;;;;;;11.24;59.64;95663.72;8382873;28;20255;-74
2023/03/10 05:20:00;;;;;;;2.30;1.47;;;;;;;11.46;59.34;95660.13;8382643;28;20225;-74
2023/03/10 05:24:03;;;;;;;2.83;1.50;;;;;;;11.51;59.30;95651.03;8382585;28;20278;-73
2023/03/10 05:28:08;;;;;;;2.57;1.50;;;;;;;11.15;60.70;95647.16;8382169;28;20229;-73
2023/03/10 05:32:11;;;;;;;2.83;1.63;;;;;;;11.18;60.36;95651.28;8382293;28;20516;-73
2023/03/10 05:36:14;;;;;;;4.60;1.60;;;;;;;11.21;60.97;95648.44;8382169;28;20225;-73
2023/03/10 05:40:18;;;;;;;2.37;1.50;;;;;;;11.34;60.86;95636.91;8382273;28;20342;-73
2023/03/10 05:44:22;;;;;;;5.00;1.20;;;;;;;11.25;61.52;95639.44;8381861;28;20233;-73
2023/03/10 05:48:26;;;;;;;1.80;1.20;;;;;;;11.35;61.70;95646.34;8381632;28;20256;-73
2023/03/10 05:52:28;;;;;;;1.73;1.00;;;;;;;11.36;61.39;95639.38;8381251;28;20236;-73
2023/03/10 05:56:32;;;;;;;1.37;0.80;;;;;;;11.48;61.56;95627.13;8381431;28;20243;-73
2023/03/10 06:00:36;;;;;;;0.83;0.80;;;;;;;11.58;61.18;95627.19;8381108;28;20240;-73
2023/03/10 06:04:39;;;;;;;2.23;0.80;;;;;;;11.60;60.69;95620.09;8381129;28;20225;-73
2023/03/10 06:08:42;;;;;;;1.73;0.80;;;;;;;11.74;60.98;95617.13;8355811;28;20430;-73
2023/03/10 06:12:45;;;;;;;0.60;0.60;;;;;;;11.54;61.26;95601.53;8348229;28;20237;-74
2023/03/10 06:16:50;;;;;;;1.80;0.73;;;;;;;11.79;60.94;95616.75;8346898;28;20228;-74
2023/03/10 06:20:54;;;;;;;1.90;0.87;;;;;;;11.66;61.15;95615.19;8348206;28;20234;-73
2023/03/10 06:24:57;;;;;;;2.03;1.17;;;;;;;11.58;61.84;95628.00;8347746;28;20321;-74
2023/03/10 06:29:00;;;;;;;2.47;1.10;;;;;;;11.61;61.40;95630.31;8347510;28;20237;-71
2023/03/10 06:33:04;;;;;;;1.80;1.20;;;;;;;11.57;61.20;95628.13;8347989;28;20229;-73
2023/03/10 06:37:07;;;;;;;1.97;1.00;;;;;;;11.64;60.58;95613.69;8347803;28;20229;-74
2023/03/10 06:41:10;;;;;;;3.93;1.37;;;;;;;11.32;61.55;95636.22;8347475;28;20232;-73
2023/03/10 06:45:15;;;;;;;2.60;1.37;;;;;;;11.46;62.23;95619.50;8346912;28;20225;-74
2023/03/10 06:49:19;;;;;;;2.73;1.37;;;;;;;11.82;61.25;95635.47;8346969;28;20244;-73
2023/03/10 06:53:22;;;;;;;2.20;1.10;;;;;;;11.63;61.37;95633.63;8347055;28;20263;-74
2023/03/10 06:57:26;;;;;;;2.77;1.33;;;;;;;11.73;61.09;95628.47;8346753;28;20221;-74
2023/03/10 07:01:30;;;;;;;2.87;1.23;;;;;;;11.85;60.33;95624.00;8346567;28;20240;-74
2023/03/10 07:05:34;;;;;;;2.47;1.50;;;;;;;11.61;61.53;95626.91;8346813;28;20234;-74
2023/03/10 07:09:37;;;;;;;1.83;1.20;;;;;;;12.03;60.64;95630.22;8346822;28;20301;-74
2023/03/10 07:13:39;;;;;;;2.43;1.30;;;;;;;12.57;59.08;95632.44;8346685;28;20237;-74
2023/03/10 07:17:43;;;;;;;1.93;1.20;;;;;;;12.02;60.19;95635.53;8379190;28;20228;-75
2023/03/10 07:21:47;;;;;;;3.43;1.43;;;;;;;12.31;59.44;95633.78;8379375;28;20243;-75
2023/03/10 07:25:52;;;;;;;2.40;1.80;;;;;;;12.36;59.58;95625.59;8380343;28;20255;-74
2023/03/10 07:29:57;;;;;;;1.97;1.10;;;;;;;12.34;59.54;95624.91;8379663;28;20252;-74
2023/03/10 07:34:00;;;;;;;1.50;1.37;;;;;;;12.02;59.99;95601.81;8379458;28;20392;-74
2023/03/10 07:38:05;;;;;;;2.33;1.10;;;;;;;11.69;61.23;95621.88;8379022;28;20284;-74
2023/03/10 07:42:07;;;;;;;3.40;0.93;;;;;;;12.67;58.63;95602.88;8378910;28;20232;-74
2023/03/10 07:46:12;;;;;;;1.53;1.10;;;;;;;12.71;58.60;95619.00;8378652;28;20400;-74
2023/03/10 07:50:15;;;;;;;0.70;0.60;;;;;;;12.42;59.60;95616.44;8378632;28;20351;-75
2023/03/10 07:54:19;;;;;;;1.60;0.80;;;;;;;12.53;59.86;95605.94;8379432;28;20241;-74
2023/03/10 07:58:23;;;;;;;2.57;0.70;;;;;;;12.60;58.84;95607.00;8379170;28;20308;-73
2023/03/10 08:02:26;;;;;;;0.93;0.87;;;;;;;12.74;58.53;95602.31;8378628;28;20225;-73
2023/03/10 08:06:29;;;;;;;2.63;0.80;;;;;;;12.57;59.59;95616.84;8378418;28;20456;-74
2023/03/10 08:10:33;;;;;;;1.17;0.57;;;;;;;12.40;60.35;95610.56;8378835;28;20238;-73
2023/03/10 08:14:36;;;;;;;1.40;0.67;;;;;;;12.35;60.01;95576.41;8378467;28;20229;-73
2023/03/10 08:18:39;;;;;;;1.30;0.93;;;;;;;12.55;59.38;95598.00;8379457;28;20517;-73
2023/03/10 08:22:42;;;;;;;4.00;1.20;;;;;;;12.52;59.72;95623.25;8378052;28;20419;-73
2023/03/10 08:26:46;;;;;;;10.27;1.70;;;;;;;12.61;59.77;95608.66;8378149;28;20525;-73
2023/03/10 08:30:49;;;;;;;1.63;1.20;;;;;;;13.54;57.55;95608.03;8378116;28;20232;-73
2023/03/10 08:35:08;;;;;;;1.00;0.80;;;;;;;13.36;57.92;95602.75;8378356;28;20232;-72
2023/03/10 08:39:11;;;;;;;1.63;1.00;;;;;;;13.06;58.60;95605.44;8381783;28;20221;-71
2023/03/10 08:43:15;;;;;;;2.07;1.50;;;;;;;12.84;59.49;95583.19;8384530;28;20256;-72
2023/03/10 08:47:18;;;;;;;0.80;0.80;;;;;;;13.39;57.41;95598.09;8384596;28;20232;-72
2023/03/10 08:51:23;;;;;;;1.30;0.80;;;;;;;13.40;57.37;95607.53;8384119;28;20234;-72
2023/03/10 08:55:26;;;;;;;1.13;0.90;;;;;;;13.34;58.42;95605.50;8383739;28;20290;-72
2023/03/10 08:59:30;;;;;;;3.83;1.10;;;;;;;13.31;59.11;95611.00;8383620;28;20225;-71
2023/03/10 09:03:35;;;;;;;1.10;0.60;;;;;;;12.89;58.48;95574.97;8383506;28;20234;-73
2023/03/10 09:07:38;;;;;;;1.40;0.90;;;;;;;13.09;58.40;95609.50;8383847;28;20431;-72
2023/03/10 09:11:41;;;;;;;0.73;0.60;;;;;;;14.13;55.75;95592.91;8383560;28;20252;-72
2023/03/10 09:15:45;;;;;;;1.10;0.70;;;;;;;13.44;57.61;95616.69;8383325;28;20221;-73
2023/03/10 09:19:48;;;;;;;0.83;0.67;;;;;;;13.31;57.54;95626.59;8383284;28;20433;-72
2023/03/10 09:23:51;;;;;;;1.00;0.80;;;;;;;13.36;57.84;95618.34;8383029;28;20234;-72
2023/03/10 09:27:54;;;;;;;1.43;0.80;;;;;;;14.49;55.43;95614.56;8382882;28;20238;-74
2023/03/10 09:31:58;;;;;;;1.50;1.10;;;;;;;14.01;56.67;95598.31;8382538;28;20230;-71
2023/03/10 09:36:02;;;;;;;1.27;0.80;;;;;;;14.10;56.56;95606.19;8382498;28;20374;-72
2023/03/10 09:40:13;;;;;;;2.47;1.13;;;;;;;14.74;54.43;95586.13;8382517;28;20238;-72
2023/03/10 09:44:24;;;;;;;1.77;1.00;;;;;;;14.44;55.08;95596.75;8382419;28;20524;-71
2023/03/10 09:48:36;;;;;;;0.90;0.77;;;;;;;14.53;52.91;95566.41;8382152;28;20232;-72
2023/03/10 09:52:45;;;;;;;1.53;0.70;;;;;;;14.00;53.64;95569.84;8382020;28;20233;-72
2023/03/10 09:56:47;;;;;;;0.77;0.70;;;;;;;14.32;54.02;95574.53;8381450;28;20228;-72
2023/03/10 10:00:50;;;;;;;1.23;0.80;;;;;;;14.16;53.67;95575.19;8382047;28;20236;-72
2023/03/10 10:04:57;;;;;;;3.00;0.70;;;;;;;13.86;54.58;95566.78;8382005;28;20431;-72
2023/03/10 10:09:03;;;;;;;0.83;0.50;;;;;;;13.82;54.42;95562.84;8381642;28;20240;-72
2023/03/10 10:13:12;;;;;;;1.37;0.80;;;;;;;13.65;55.67;95576.59;8381625;28;20225;-72
2023/03/10 10:17:24;;;;;;;0.70;0.70;;;;;;;13.66;65.71;95602.47;8381073;28;20566;-72
2023/03/10 10:21:35;;;;;;;1.63;0.60;;;;;;;12.94;62.90;95603.94;8381017;28;20236;-72
2023/03/10 10:25:44;;;;;;;0.93;0.53;;;;;;;13.37;59.18;95583.59;8380695;28;20238;-72
2023/03/10 10:29:47;;;;;;;0.70;0.50;;;;;;;12.97;58.48;95605.44;8381004;28;20552;-71
2023/03/10 10:33:53;;;;;;;0.40;0.40;;;;;;;12.54;57.53;95566.00;8380636;28;20235;-70
2023/03/10 10:38:02;;;;;;;0.20;0.20;;;;;;;12.35;58.76;95633.50;8381063;28;20402;-72
2023/03/10 10:42:13;;;;;;;0.60;0.50;;;;;;;12.28;58.30;95613.31;8380884;28;20233;-71
2023/03/10 10:46:24;;;;;;;0.23;0.20;;;;;;;12.58;58.46;95613.28;8380455;28;20234;-71
2023/03/10 10:50:30;;;;;;;1.80;0.70;;;;;;;12.56;57.53;95623.81;8380564;28;20232;-71
2023/03/10 10:54:38;;;;;;;1.10;1.10;;;;;;;12.64;55.98;95594.56;8380424;28;20292;-72
2023/03/10 10:58:42;;;;;;;1.23;1.07;;;;;;;12.72;54.85;95612.88;8380538;28;20528;-70
2023/03/10 11:02:45;;;;;;;2.53;2.40;;;;;;;12.83;54.66;95622.28;8379301;28;20221;-71
2023/03/10 11:06:49;;;;;;;1.73;1.63;;;;;;;12.79;54.95;95623.50;8379718;28;20233;-71
2023/03/10 11:10:58;;;;;;;3.73;3.30;;;;;;;12.85;55.58;95612.56;8379956;28;20228;-72
2023/03/10 11:15:09;;;;;;;1.87;1.00;;;;;;;12.95;54.68;95615.97;8379630;28;20234;-72
2023/03/10 11:19:17;;;;;;;5.07;3.00;;;;;;;13.54;53.35;95606.25;8379459;28;20520;-73
2023/03/10 11:23:22;;;;;;;6.43;3.92;;;;;;;14.22;51.49;95590.22;8377773;28;20413;-72
2023/03/10 11:27:35;;;;;;;4.73;2.80;;;;;;;13.94;52.47;95591.25;8379124;28;20236;-72
2023/03/10 11:31:43;;;;;;;2.13;0.93;;;;;;;14.29;51.65;95574.81;8379164;28;20426;-72
2023/03/10 11:35:47;;;;;;;2.60;1.53;;;;;;;14.17;51.72;95591.63;8378557;28;20429;-72
2023/03/10 11:39:54;;;;;;;2.97;1.97;;;;;;;14.77;50.95;95602.25;8379186;28;20301;-72
2023/03/10 11:44:00;;;;;;;2.97;1.30;;;;;;;15.53;50.16;95584.28;8379104;28;20383;-72
2023/03/10 11:48:25;;;;;;;3.27;1.20;;;;;;;14.99;51.12;95577.50;8378638;28;20229;-72
2023/03/10 11:52:29;;;;;;;2.50;1.67;;;;;;;14.43;52.58;95583.88;8378733;28;20232;-72
2023/03/10 11:56:32;;;;;;;2.40;1.60;;;;;;;14.56;52.43;95557.47;8378744;28;20229;-72
2023/03/10 12:00:40;;;;;;;2.23;1.10;;;;;;;15.32;49.97;95564.63;8378764;28;20238;-72
2023/03/10 12:04:47;;;;;;;1.83;1.07;;;;;;;15.91;49.43;95569.13;8378544;28;20292;-73
2023/03/10 12:08:51;;;;;;;2.20;1.10;;;;;;;15.08;50.43;95574.94;8378228;28;20241;-72
2023/03/10 12:12:58;;;;;;;3.30;1.17;;;;;;;14.32;51.09;95565.88;8379950;28;20234;-72
2023/03/10 12:17:02;;;;;;;2.80;1.10;;;;;;;14.51;51.49;95567.50;8384889;28;20229;-72
2023/03/10 12:21:17;;;;;;;2.53;1.03;;;;;;;14.72;51.58;95567.22;8384822;28;20404;-72
2023/03/10 12:25:44;;;;;;;3.80;1.20;;;;;;;13.84;51.61;95558.31;8384390;28;20251;-72
2023/03/10 12:29:50;;;;;;;2.40;0.60;;;;;;;13.92;50.13;95546.31;8383882;28;20221;-72
2023/03/10 12:34:09;;;;;;;1.20;0.47;;;;;;;14.24;50.00;95538.84;8384023;28;20427;-72
2023/03/10 12:38:27;;;;;;;0.57;0.50;;;;;;;14.31;48.83;95527.81;8384033;28;20548;-72
2023/03/10 12:42:31;;;;;;;0.63;0.40;;;;;;;13.91;49.00;95506.50;8384430;28;20229;-72
2023/03/10 12:46:42;;;;;;;0.50;0.37;;;;;;;13.99;50.08;95526.56;8384581;28;20232;-71
2023/03/10 12:50:48;;;;;;;0.50;0.50;;;;;;;14.11;49.87;95522.78;8358092;28;20226;-72
2023/03/10 12:54:55;;;;;;;0.83;0.40;;;;;;;13.68;50.97;95535.53;8350703;28;20404;-72
2023/03/10 12:59:03;;;;;;;0.67;0.20;;;;;;;13.03;52.22;95475.78;8350679;28;20229;-72
2023/03/10 13:03:17;;;;;;;0.73;0.50;;;;;;;13.31;53.77;95533.00;8350454;28;20236;-72
2023/03/10 13:07:21;;;;;;;0.50;0.40;;;;;;;12.63;58.76;95548.78;8350897;28;20233;-72
2023/03/10 13:11:30;;;;;;;1.00;0.60;;;;;;;13.41;58.33;95545.97;8350877;28;20237;-72
2023/03/10 13:15:34;;;;;;;0.50;0.43;;;;;;;14.62;56.62;95517.81;8350354;28;20239;-72
2023/03/10 13:19:38;;;;;;;0.80;0.60;;;;;;;14.59;56.24;95520.75;8349978;28;20235;-72
2023/03/10 13:23:43;;;;;;;1.00;0.40;;;;;;;14.68;54.75;95518.97;8382377;28;20233;-73
2023/03/10 13:27:46;;;;;;;0.43;0.43;;;;;;;15.08;55.04;95514.97;8382897;28;20235;-71
2023/03/10 13:31:51;;;;;;;0.30;0.30;;;;;;;15.99;51.41;95519.53;8382700;28;20244;-73
2023/03/10 13:35:54;;;;;;;0.47;0.30;;;;;;;15.92;51.59;95508.13;8382599;28;20236;-72
2023/03/10 13:40:09;;;;;;;0.40;0.40;;;;;;;14.91;52.35;95514.91;8382299;28;20420;-71
2023/03/10 13:44:17;;;;;;;0.60;0.60;;;;;;;14.34;54.02;95517.13;8382221;28;20225;-72
2023/03/10 13:48:21;;;;;;;0.50;0.33;;;;;;;14.17;55.05;95518.75;8382371;28;20436;-72
2023/03/10 13:52:26;;;;;;;0.87;0.47;;;;;;;14.06;54.94;95515.41;8382312;28;20241;-72
2023/03/10 13:56:34;;;;;;;1.03;0.60;;;;;;;14.18;54.24;95515.97;8382500;28;20233;-73
2023/03/10 14:00:37;;;;;;;0.90;0.40;;;;;;;13.79;54.34;95520.69;8381926;28;20287;-72
2023/03/10 14:04:45;;;;;;;0.87;0.50;;;;;;;13.63;55.60;95516.13;8381935;28;20275;-72
2023/03/10 14:08:49;;;;;;;1.20;0.90;;;;;;;13.72;56.08;95523.06;8380908;28;20237;-72
2023/03/10 14:12:54;;;;;;;0.67;0.60;;;;;;;13.60;56.43;95513.84;8381639;28;20290;-72
2023/03/10 14:16:59;;;;;;;0.50;0.50;;;;;;;13.22;56.73;95490.47;8382040;28;20229;-72
2023/03/10 14:21:23;;;;;;;0.93;0.60;;;;;;;13.38;56.72;95526.25;8381874;28;20250;-74
2023/03/10 14:25:26;;;;;;;1.23;0.50;;;;;;;13.36;56.88;95525.59;8381124;28;20553;-71
2023/03/10 14:29:31;;;;;;;0.40;0.33;;;;;;;12.92;56.65;95514.94;8381112;28;20230;-72
2023/03/10 14:33:33;;;;;;;0.20;0.20;;;;;;;13.21;55.81;95521.78;8381535;28;20561;-71
2023/03/10 14:37:38;;;;;;;0.30;0.30;;;;;;;12.65;56.24;95508.75;8380317;28;20535;-72
2023/03/10 14:41:41;;;;;;;0.63;0.20;;;;;;;12.81;56.34;95539.31;8380963;28;20225;-72
2023/03/10 14:45:46;;;;;;;0.13;0.13;;;;;;;12.78;56.66;95529.22;8356244;28;20242;-72
2023/03/10 14:49:48;;;;;;;0.40;0.30;;;;;;;12.98;57.93;95537.75;8348673;28;20523;-72
2023/03/10 14:53:51;;;;;;;0.43;0.43;;;;;;;12.55;60.24;95522.72;8347880;28;20254;-72
2023/03/10 14:57:57;;;;;;;0.70;0.50;;;;;;;12.74;60.37;95519.22;8347698;28;20299;-72
2023/03/10 15:02:06;;;;;;;0.67;0.37;;;;;;;12.84;60.95;95552.00;8347914;28;20245;-73
2023/03/10 15:06:11;;;;;;;1.17;0.47;;;;;;;12.39;62.19;95546.63;8347329;28;20229;-72
2023/03/10 15:10:16;;;;;;;1.13;0.40;;;;;;;12.29;62.62;95539.66;8347916;28;20533;-72
2023/03/10 15:14:19;;;;;;;1.00;0.90;;;;;;;12.43;62.22;95527.22;8348077;28;20230;-72
2023/03/10 15:18:25;;;;;;;1.17;1.03;;;;;;;12.39;62.13;95560.41;8346389;28;20241;-73
2023/03/10 15:22:28;;;;;;;1.00;0.97;;;;;;;12.35;61.96;95558.25;8346301;28;20232;-73
2023/03/10 15:26:31;;;;;;;0.50;0.40;;;;;;;12.35;61.69;95555.66;8346095;28;20233;-73
2023/03/10 15:30:35;;;;;;;0.70;0.60;;;;;;;12.32;61.50;95560.16;8346372;28;20256;-73
2023/03/10 15:34:39;;;;;;;0.70;0.50;;;;;;;12.15;62.15;95571.22;8346154;28;20237;-72
2023/03/10 15:38:45;;;;;;;1.77;1.57;;;;;;;11.44;62.49;95563.56;8378659;28;20232;-73
2023/03/10 15:42:48;;;;;;;8.77;7.43;;;;;;;11.62;62.68;95559.38;8379165;28;20229;-73
2023/03/10 15:46:53;;;;;;;5.33;4.90;;;;;;;11.61;62.40;95562.91;8382084;28;20232;-73
2023/03/10 15:50:57;;;;;;;5.17;4.67;;;;;;;11.65;63.18;95559.13;8389764;28;20233;-73
2023/03/10 15:55:00;;;;;;;1.63;1.40;;;;;;;11.39;63.45;95563.97;8389952;28;20586;-73
2023/03/10 15:59:03;;;;;;;1.27;1.27;;;;;;;11.10;63.49;95561.25;8389769;28;20228;-73
2023/03/10 16:03:06;;;;;;;1.70;1.60;;;;;;;11.21;63.75;95557.75;8389722;28;20225;-72
2023/03/10 16:07:11;;;;;;;1.27;1.27;;;;;;;11.21;63.37;95552.59;8389402;28;20384;-72
2023/03/10 16:11:16;;;;;;;0.30;0.30;;;;;;;11.00;63.75;95552.63;8389382;28;20239;-72
2023/03/10 16:15:19;;;;;;;0.60;0.30;;;;;;;10.90;65.37;95579.28;8389567;28;20369;-72
2023/03/10 16:19:22;;;;;;;0.23;0.20;;;;;;;11.04;65.27;95582.50;8389217;28;20239;-72
2023/03/10 16:23:27;;;;;;;0.67;0.30;;;;;;;10.46;66.83;95583.78;8389581;28;20237;-72
2023/03/10 16:27:30;;;;;;;0.33;0.33;;;;;;;10.49;65.92;95588.72;8389534;28;20249;-72
2023/03/10 16:31:33;;;;;;;0.40;0.40;;;;;;;10.75;65.00;95598.69;8389326;28;20225;-72
2023/03/10 16:35:38;;;;;;;0.97;0.50;;;;;;;10.80;64.55;95593.97;8389360;28;20232;-72
2023/03/10 16:39:42;;;;;;;0.50;0.50;;;;;;;11.07;63.11;95606.38;8389024;28;20263;-72
2023/03/10 16:43:45;;;;;;;0.40;0.40;;;;;;;10.88;62.93;95585.56;8388621;28;20535;-72
2023/03/10 16:47:48;;;;;;;0.60;0.60;;;;;;;10.76;63.14;95626.25;8389106;28;20233;-72
2023/03/10 16:51:51;;;;;;;0.60;0.60;;;;;;;10.64;62.53;95612.53;8388818;28;20236;-72
2023/03/10 16:56:03;;;;;;;0.73;0.73;;;;;;;10.37;62.84;95600.88;8389160;28;20554;-72
2023/03/10 17:00:09;;;;;;;1.40;1.30;;;;;;;10.73;62.75;95621.31;8384553;28;20231;-72
2023/03/10 17:04:12;;;;;;;0.30;0.30;;;;;;;10.44;61.16;95559.81;8383720;28;20304;-72
2023/03/10 17:08:15;;;;;;;0.60;0.60;;;;;;;10.70;61.25;95618.94;8383155;28;20241;-72
2023/03/10 17:12:19;;;;;;;0.70;0.70;;;;;;;10.03;60.04;95578.66;8383296;28;20243;-72
2023/03/10 17:16:26;;;;;;;0.47;0.47;;;;;;;10.27;58.53;95625.00;8383346;28;20225;-72
2023/03/10 17:20:29;;;;;;;0.50;0.50;;;;;;;10.36;58.40;95642.44;8383164;28;20452;-72
2023/03/10 17:24:32;;;;;;;2.10;0.60;;;;;;;10.49;58.21;95640.50;8382426;28;20236;-72
2023/03/10 17:28:39;;;;;;;0.87;0.80;;;;;;;10.37;57.01;95650.03;8382157;28;20231;-72
2023/03/10 17:32:43;;;;;;;1.30;1.00;;;;;;;10.06;57.21;95609.44;8356791;28;20228;-72
2023/03/10 17:36:49;;;;;;;1.63;0.90;;;;;;;10.20;56.67;95658.28;8349384;28;20225;-71
2023/03/10 17:40:52;;;;;;;0.80;0.63;;;;;;;10.28;56.82;95666.28;8349440;28;20425;-72
2023/03/10 17:44:58;;;;;;;1.30;0.90;;;;;;;10.17;56.60;95690.41;8349730;28;20230;-72
2023/03/10 17:49:01;;;;;;;2.63;0.70;;;;;;;9.84;57.09;95677.53;8349277;28;20267;-72
2023/03/10 17:53:04;;;;;;;5.10;3.07;;;;;;;10.47;55.79;95680.34;8348753;28;20243;-72
2023/03/10 17:57:07;;;;;;;3.90;1.10;;;;;;;10.01;56.11;95689.16;8348884;28;20570;-72
2023/03/10 18:01:13;;;;;;;1.63;1.00;;;;;;;9.92;55.52;95707.03;8348833;28;20224;-72
2023/03/10 18:05:16;;;;;;;2.40;1.47;;;;;;;9.91;54.86;95714.91;8348641;28;20308;-73
2023/03/10 18:09:19;;;;;;;2.27;1.50;;;;;;;9.64;54.97;95713.50;8349134;28;20240;-73
2023/03/10 18:13:21;;;;;;;1.93;1.40;;;;;;;10.20;54.29;95740.25;8347803;28;20244;-72
2023/03/10 18:17:27;;;;;;;3.00;1.20;;;;;;;9.92;53.91;95761.31;8348355;28;20235;-72
2023/03/10 18:21:30;;;;;;;2.67;1.40;;;;;;;9.91;53.13;95764.84;8348216;28;20231;-73
2023/03/10 18:25:33;;;;;;;3.33;1.27;;;;;;;10.07;52.23;95746.41;8347883;28;20226;-73
2023/03/10 18:29:36;;;;;;;2.77;1.20;;;;;;;9.94;51.89;95746.50;8347875;28;20236;-71
2023/03/10 18:33:40;;;;;;;2.90;1.47;;;;;;;9.70;51.25;95725.13;8348612;28;20234;-72
2023/03/10 18:37:43;;;;;;;3.10;1.37;;;;;;;10.17;50.71;95749.91;8355330;28;20228;-69
2023/03/10 18:41:46;;;;;;;2.97;1.00;;;;;;;9.76;51.13;95746.16;8347459;28;20231;-72
2023/03/10 18:45:49;;;;;;;3.30;1.40;;;;;;;10.08;50.34;95758.38;8347493;28;20339;-71
2023/03/10 18:49:53;;;;;;;3.43;1.40;;;;;;;9.99;50.44;95728.03;8347381;28;20558;-72
2023/03/10 18:53:59;;;;;;;3.07;1.30;;;;;;;9.56;49.43;95690.00;8347178;28;20430;-71
2023/03/10 18:58:01;;;;;;;6.13;1.07;;;;;;;9.77;49.19;95732.28;8347682;28;20239;-74
2023/03/10 19:02:04;;;;;;;6.00;2.87;;;;;;;10.22;48.82;95725.44;8347014;28;20417;-74
2023/03/10 19:06:09;;;;;;;2.83;1.97;;;;;;;9.59;49.87;95689.75;8346970;28;20231;-74
2023/03/10 19:10:13;;;;;;;2.80;1.00;;;;;;;9.64;50.60;95733.34;8346238;28;20222;-74
2023/03/10 19:14:17;;;;;;;3.13;1.40;;;;;;;9.59;50.31;95716.44;8346601;28;20231;-74